createdAt,value
2017-04-26T00:00:01.161Z,84.2
2017-04-26T00:01:02.958Z,84.4
2017-04-26T00:02:04.961Z,84.2
2017-04-26T00:03:06.767Z,84.3
2017-04-26T00:04:08.561Z,84.3
2017-04-26T00:05:10.358Z,84.6
2017-04-26T00:06:12.150Z,84.6
2017-04-26T00:07:13.947Z,84.6
2017-04-26T00:08:16.032Z,84.4
2017-04-26T00:09:17.875Z,84.6
2017-04-26T00:10:19.706Z,85.2
2017-04-26T00:11:21.504Z,86.2
2017-04-26T00:12:23.301Z,85.9
2017-04-26T00:13:25.807Z,85.5
2017-04-26T00:14:28.283Z,85
2017-04-26T00:15:30.279Z,84.6
2017-04-26T00:16:32.087Z,84.8
2017-04-26T00:17:33.887Z,85.1
2017-04-26T00:18:35.689Z,85.9
2017-04-26T00:19:37.485Z,85.2
2017-04-26T00:20:39.277Z,84.8
2017-04-26T00:21:41.430Z,85
2017-04-26T00:22:43.253Z,85.5
2017-04-26T00:23:45.051Z,85.6
2017-04-26T00:24:46.850Z,85.5
2017-04-26T00:25:48.648Z,85.9
2017-04-26T00:26:50.442Z,86
2017-04-26T00:27:52.270Z,85.8
2017-04-26T00:28:54.059Z,86.5
2017-04-26T00:29:55.873Z,86.8
2017-04-26T00:30:58.022Z,86.5
2017-04-26T00:32:00.187Z,85.9
2017-04-26T00:33:01.989Z,86
2017-04-26T00:34:03.783Z,86.2
2017-04-26T00:35:05.978Z,86.3
2017-04-26T00:36:07.771Z,86.5
2017-04-26T00:37:09.589Z,87
2017-04-26T00:38:12.054Z,86.7
2017-04-26T00:39:14.190Z,87.2
2017-04-26T00:40:15.988Z,87.4
2017-04-26T00:41:18.136Z,87.2
2017-04-26T00:42:19.951Z,87.3
2017-04-26T00:43:21.758Z,87
2017-04-26T00:44:23.563Z,87
2017-04-26T00:45:25.494Z,87.3
2017-04-26T00:46:27.321Z,87.5
2017-04-26T00:47:29.119Z,87.2
2017-04-26T00:48:30.921Z,87.5
2017-04-26T00:49:32.724Z,87.8
2017-04-26T00:50:34.519Z,87.2
2017-04-26T00:51:36.319Z,86.6
2017-04-26T00:52:38.451Z,87
2017-04-26T00:53:40.274Z,87.4
2017-04-26T00:54:42.082Z,87.7
2017-04-26T00:55:43.888Z,87.5
2017-04-26T00:56:45.684Z,87.5
2017-04-26T00:57:47.488Z,87.5
2017-04-26T00:58:49.284Z,87.2
2017-04-26T00:59:51.079Z,87.1
2017-04-26T01:00:52.875Z,87.5
2017-04-26T01:01:54.671Z,87.6
2017-04-26T01:02:56.465Z,87.6
2017-04-26T01:03:58.261Z,88.2
2017-04-26T01:05:00.058Z,88.1
2017-04-26T01:06:01.850Z,87.4
2017-04-26T01:07:03.652Z,87
2017-04-26T01:08:05.933Z,87.1
2017-04-26T01:09:07.925Z,87.1
2017-04-26T01:10:10.054Z,87.5
2017-04-26T01:11:11.915Z,87.9
2017-04-26T01:12:13.908Z,88.2
2017-04-26T01:13:15.762Z,88.5
2017-04-26T01:14:17.959Z,88.3
2017-04-26T01:15:20.153Z,88
2017-04-26T01:16:21.949Z,88
2017-04-26T01:17:23.750Z,88.7
2017-04-26T01:18:25.547Z,88.8
2017-04-26T01:19:27.341Z,88.4
2017-04-26T01:20:29.138Z,89
2017-04-26T01:21:30.935Z,89
2017-04-26T01:22:32.757Z,88.7
2017-04-26T01:23:34.553Z,88.1
2017-04-26T01:24:36.340Z,88.1
2017-04-26T01:25:38.145Z,88.5
2017-04-26T01:26:39.935Z,89
2017-04-26T01:27:41.756Z,89.1
2017-04-26T01:28:43.888Z,89.2
2017-04-26T01:29:45.685Z,89.7
2017-04-26T01:30:47.487Z,89.6
2017-04-26T01:31:49.286Z,89.3
2017-04-26T01:32:51.096Z,89.4
2017-04-26T01:33:52.893Z,89.4
2017-04-26T01:34:54.693Z,89.8
2017-04-26T01:35:56.864Z,89.7
2017-04-26T01:36:58.664Z,89.8
2017-04-26T01:38:00.459Z,89.7
2017-04-26T01:39:02.603Z,89.7
2017-04-26T01:40:04.738Z,89.6
2017-04-26T01:41:06.532Z,89.6
2017-04-26T01:42:08.324Z,89.5
2017-04-26T01:43:10.483Z,89.7
2017-04-26T01:44:12.280Z,89.5
2017-04-26T01:45:14.072Z,89.7
2017-04-26T01:46:15.863Z,89.8
2017-04-26T01:47:17.658Z,89.6
2017-04-26T01:48:19.456Z,89.4
2017-04-26T01:49:21.616Z,89.2
2017-04-26T01:50:23.422Z,89.4
2017-04-26T01:51:25.210Z,89.3
2017-04-26T01:52:27.009Z,88.9
2017-04-26T01:53:29.137Z,89.5
2017-04-26T01:54:30.936Z,89.1
2017-04-26T01:55:32.724Z,89.5
2017-04-26T01:56:34.866Z,89.6
2017-04-26T01:57:36.999Z,89.4
2017-04-26T01:58:38.794Z,88.8
2017-04-26T01:59:40.589Z,88.6
2017-04-26T02:00:42.388Z,88.7
2017-04-26T02:01:44.185Z,88.4
2017-04-26T02:02:46.316Z,88.9
2017-04-26T02:03:48.107Z,89.4
2017-04-26T02:04:49.907Z,89.9
2017-04-26T02:05:51.699Z,89.7
2017-04-26T02:06:53.492Z,89.4
2017-04-26T02:07:55.285Z,89.8
2017-04-26T02:08:57.410Z,90.1
2017-04-26T02:09:59.206Z,89.9
2017-04-26T02:11:01.354Z,90
2017-04-26T02:12:03.486Z,89.8
2017-04-26T02:13:05.309Z,89.8
2017-04-26T02:14:07.109Z,89.9
2017-04-26T02:15:08.898Z,89.9
2017-04-26T02:16:10.691Z,89.7
2017-04-26T02:17:12.486Z,89.7
2017-04-26T02:18:14.287Z,89.3
2017-04-26T02:19:16.423Z,88.6
2017-04-26T02:20:18.219Z,88.2
2017-04-26T02:21:20.355Z,88.5
2017-04-26T02:22:22.144Z,89.4
2017-04-26T02:23:24.292Z,89.5
2017-04-26T02:24:26.423Z,89.6
2017-04-26T02:25:28.215Z,89.8
2017-04-26T02:26:30.013Z,89.6
2017-04-26T02:27:32.158Z,89.2
2017-04-26T02:28:33.952Z,88.9
2017-04-26T02:29:36.089Z,89.3
2017-04-26T02:30:37.878Z,89.9
2017-04-26T02:31:39.674Z,90.5
2017-04-26T02:32:41.463Z,90.7
2017-04-26T02:33:43.271Z,90.6
2017-04-26T02:34:45.747Z,90.3
2017-04-26T02:35:47.546Z,89.7
2017-04-26T02:36:49.341Z,89.1
2017-04-26T02:37:51.135Z,89.3
2017-04-26T02:38:52.931Z,89.7
2017-04-26T02:39:55.071Z,90.4
2017-04-26T02:40:56.863Z,90.7
2017-04-26T02:41:58.662Z,90.7
2017-04-26T02:43:00.471Z,90.6
2017-04-26T02:44:02.265Z,90.5
2017-04-26T02:45:04.060Z,90.6
2017-04-26T02:46:05.855Z,90.9
2017-04-26T02:47:07.645Z,91.2
2017-04-26T02:48:09.777Z,91.5
2017-04-26T02:49:11.575Z,91.6
2017-04-26T02:50:13.368Z,91.4
2017-04-26T02:51:15.165Z,90.8
2017-04-26T02:52:16.964Z,92.4
2017-04-26T02:53:18.756Z,92.1
2017-04-26T02:54:20.552Z,91.7
2017-04-26T02:55:22.339Z,91
2017-04-26T02:56:24.130Z,90.7
2017-04-26T02:57:25.924Z,90.2
2017-04-26T02:58:28.391Z,89.9
2017-04-26T02:59:30.182Z,90
2017-04-26T03:00:31.977Z,89.9
2017-04-26T03:01:33.771Z,89.6
2017-04-26T03:02:35.567Z,89.1
2017-04-26T03:03:37.695Z,88.6
2017-04-26T03:04:39.502Z,89.5
2017-04-26T03:05:41.295Z,90.1
2017-04-26T03:06:43.087Z,90.3
2017-04-26T03:07:44.878Z,90.1
2017-04-26T03:08:46.674Z,89.8
2017-04-26T03:09:48.467Z,89.6
2017-04-26T03:10:50.264Z,89.2
2017-04-26T03:11:52.057Z,89.2
2017-04-26T03:12:53.852Z,89.1
2017-04-26T03:13:55.979Z,89.5
2017-04-26T03:14:57.779Z,90.6
2017-04-26T03:15:59.572Z,91
2017-04-26T03:17:01.369Z,90.9
2017-04-26T03:18:03.159Z,90.5
2017-04-26T03:19:05.297Z,90.3
2017-04-26T03:20:07.090Z,89.9
2017-04-26T03:21:08.882Z,90
2017-04-26T03:22:11.014Z,90
2017-04-26T03:23:12.811Z,90
2017-04-26T03:24:14.603Z,90.6
2017-04-26T03:25:16.748Z,91.6
2017-04-26T03:26:18.542Z,91.4
2017-04-26T03:27:20.340Z,91.1
2017-04-26T03:28:22.810Z,91.5
2017-04-26T03:29:24.956Z,91.7
2017-04-26T03:30:26.757Z,91
2017-04-26T03:31:28.881Z,90.7
2017-04-26T03:32:30.675Z,90.4
2017-04-26T03:33:32.472Z,90.3
2017-04-26T03:34:34.265Z,90.4
2017-04-26T03:35:36.061Z,91.1
2017-04-26T03:36:37.852Z,91.3
2017-04-26T03:37:39.651Z,91.1
2017-04-26T03:38:41.445Z,90.6
2017-04-26T03:39:43.242Z,90.5
2017-04-26T03:40:45.036Z,90
2017-04-26T03:41:46.843Z,89.7
2017-04-26T03:42:48.980Z,89.6
2017-04-26T03:43:50.777Z,89.8
2017-04-26T03:44:52.563Z,90
2017-04-26T03:45:54.364Z,90.2
2017-04-26T03:46:56.156Z,90.1
2017-04-26T03:47:58.290Z,90.7
2017-04-26T03:49:00.083Z,91.4
2017-04-26T03:50:01.878Z,91.7
2017-04-26T03:51:03.673Z,91.4
2017-04-26T03:52:05.472Z,91.1
2017-04-26T03:53:07.262Z,91.1
2017-04-26T03:54:09.053Z,90.7
2017-04-26T03:55:10.843Z,90.5
2017-04-26T03:56:12.643Z,91
2017-04-26T03:57:14.780Z,91.4
2017-04-26T03:58:16.574Z,91.4
2017-04-26T03:59:18.701Z,91.4
2017-04-26T04:00:20.495Z,91.7
2017-04-26T04:01:22.289Z,91.8
2017-04-26T04:02:24.084Z,91.3
2017-04-26T04:03:25.876Z,91.4
2017-04-26T04:04:27.676Z,91.3
2017-04-26T04:05:29.467Z,91.3
2017-04-26T04:06:31.265Z,91.5
2017-04-26T04:07:33.060Z,91.4
2017-04-26T04:08:34.857Z,91.5
2017-04-26T04:09:36.654Z,91.7
2017-04-26T04:10:38.449Z,91
2017-04-26T04:11:40.240Z,90.6
2017-04-26T04:12:42.038Z,90.8
2017-04-26T04:13:43.827Z,90.7
2017-04-26T04:14:45.971Z,91.1
2017-04-26T04:15:47.768Z,91.2
2017-04-26T04:16:49.566Z,90.5
2017-04-26T04:17:51.690Z,90.8
2017-04-26T04:18:53.488Z,91.1
2017-04-26T04:19:55.630Z,91
2017-04-26T04:20:57.424Z,91.2
2017-04-26T04:21:59.226Z,91.6
2017-04-26T04:23:01.359Z,92.1
2017-04-26T04:24:03.491Z,92
2017-04-26T04:25:05.288Z,92
2017-04-26T04:26:07.076Z,92.7
2017-04-26T04:27:08.875Z,92.4
2017-04-26T04:28:10.670Z,93
2017-04-26T04:29:12.467Z,93
2017-04-26T04:30:14.258Z,92.4
2017-04-26T04:31:16.049Z,93.5
2017-04-26T04:32:17.866Z,94.2
2017-04-26T04:33:19.656Z,94.3
2017-04-26T04:34:21.791Z,94.6
2017-04-26T04:35:23.584Z,94.4
2017-04-26T04:36:25.392Z,94
2017-04-26T04:37:27.190Z,94.2
2017-04-26T04:38:28.981Z,93.8
2017-04-26T04:39:30.777Z,93.3
2017-04-26T04:40:32.918Z,93.5
2017-04-26T04:41:34.718Z,94.4
2017-04-26T04:42:36.514Z,95.2
2017-04-26T04:43:38.643Z,95.7
2017-04-26T04:44:41.129Z,95.3
2017-04-26T04:45:42.921Z,95.3
2017-04-26T04:46:44.716Z,94.8
2017-04-26T04:47:46.863Z,95.3
2017-04-26T04:48:48.657Z,95.1
2017-04-26T04:49:50.798Z,95.1
2017-04-26T04:50:52.591Z,95.1
2017-04-26T04:51:54.386Z,96.2
2017-04-26T04:52:56.179Z,96.6
2017-04-26T04:53:58.002Z,96.4
2017-04-26T04:54:59.799Z,96.2
2017-04-26T04:56:01.591Z,96.4
2017-04-26T04:57:03.385Z,96.3
2017-04-26T04:58:05.486Z,96.3
2017-04-26T04:59:07.282Z,96.2
2017-04-26T05:00:09.076Z,95.7
2017-04-26T05:01:10.866Z,95.5
2017-04-26T05:02:12.689Z,95.6
2017-04-26T05:03:14.484Z,95.5
2017-04-26T05:04:16.280Z,95.5
2017-04-26T05:05:18.075Z,95.6
2017-04-26T05:06:19.874Z,95.6
2017-04-26T05:07:21.671Z,95.5
2017-04-26T05:08:23.852Z,95.7
2017-04-26T05:09:25.640Z,95.2
2017-04-26T05:10:27.439Z,95.1
2017-04-26T05:11:29.228Z,94.4
2017-04-26T05:12:31.025Z,94.4
2017-04-26T05:13:32.817Z,94.6
2017-04-26T05:14:34.612Z,95.2
2017-04-26T05:15:36.410Z,95.7
2017-04-26T05:16:38.206Z,95
2017-04-26T05:17:40.338Z,94.7
2017-04-26T05:18:42.814Z,94.8
2017-04-26T05:19:44.614Z,94.6
2017-04-26T05:20:46.403Z,94.4
2017-04-26T05:21:48.196Z,94.5
2017-04-26T05:22:49.985Z,94.6
2017-04-26T05:23:51.787Z,94.6
2017-04-26T05:24:53.917Z,94.2
2017-04-26T05:25:55.712Z,93.8
2017-04-26T05:26:57.515Z,93.5
2017-04-26T05:27:59.322Z,93.8
2017-04-26T05:29:01.449Z,93.8
2017-04-26T05:30:03.258Z,93.3
2017-04-26T05:31:05.388Z,93.3
2017-04-26T05:32:07.543Z,93
2017-04-26T05:33:09.675Z,93
2017-04-26T05:34:11.807Z,92.9
2017-04-26T05:35:13.597Z,92.6
2017-04-26T05:36:15.730Z,92.4
2017-04-26T05:37:17.530Z,92.9
2017-04-26T05:38:19.656Z,92.7
2017-04-26T05:39:21.787Z,92.3
2017-04-26T05:40:23.933Z,91.5
2017-04-26T05:41:26.062Z,91.3
2017-04-26T05:42:27.861Z,91.7
2017-04-26T05:43:29.661Z,91.9
2017-04-26T05:44:31.456Z,92.3
2017-04-26T05:45:33.252Z,91.6
2017-04-26T05:46:35.047Z,91.6
2017-04-26T05:47:36.845Z,91.8
2017-04-26T05:48:38.990Z,92.3
2017-04-26T05:49:40.793Z,91.9
2017-04-26T05:50:42.588Z,91.8
2017-04-26T05:51:44.376Z,91.4
2017-04-26T05:52:46.167Z,90.7
2017-04-26T05:53:47.964Z,91.3
2017-04-26T05:54:49.756Z,91.1
2017-04-26T05:55:51.555Z,91.1
2017-04-26T05:56:53.380Z,91
2017-04-26T05:57:55.177Z,90.6
2017-04-26T05:58:57.324Z,90.5
2017-04-26T05:59:59.121Z,89.8
2017-04-26T06:01:00.919Z,90.6
2017-04-26T06:02:02.716Z,91
2017-04-26T06:03:04.516Z,91.4
2017-04-26T06:04:06.310Z,91.2
2017-04-26T06:05:08.113Z,90.6
2017-04-26T06:06:09.907Z,91
2017-04-26T06:07:11.704Z,91.1
2017-04-26T06:08:13.501Z,91.2
2017-04-26T06:09:15.299Z,90.3
2017-04-26T06:10:17.094Z,91.1
2017-04-26T06:11:18.891Z,91.7
2017-04-26T06:12:20.690Z,91.2
2017-04-26T06:13:22.485Z,90.5
2017-04-26T06:14:24.284Z,90.7
2017-04-26T06:15:26.081Z,90.6
2017-04-26T06:16:27.881Z,90.7
2017-04-26T06:17:29.679Z,89.9
2017-04-26T06:18:31.707Z,89.3
2017-04-26T06:19:33.790Z,88.5
2017-04-26T06:20:35.634Z,88.7
2017-04-26T06:21:37.701Z,88.8
2017-04-26T06:22:39.698Z,88.6
2017-04-26T06:23:41.874Z,88.9
2017-04-26T06:24:44.035Z,89
2017-04-26T06:25:45.832Z,89.1
2017-04-26T06:26:47.636Z,89.1
2017-04-26T06:27:49.430Z,89.5
2017-04-26T06:28:51.237Z,89.4
2017-04-26T06:29:53.376Z,89.2
2017-04-26T06:30:55.177Z,88.6
2017-04-26T06:31:56.975Z,88.1
2017-04-26T06:32:58.871Z,88.1
2017-04-26T06:34:00.938Z,88.2
2017-04-26T06:35:02.929Z,88.5
2017-04-26T06:36:04.952Z,88.3
2017-04-26T06:37:06.928Z,87.4
2017-04-26T06:38:09.219Z,87.2
2017-04-26T06:39:11.395Z,88.2
2017-04-26T06:40:13.196Z,88
2017-04-26T06:41:14.998Z,88.2
2017-04-26T06:42:16.797Z,88.3
2017-04-26T06:43:18.928Z,88.7
2017-04-26T06:44:21.079Z,87.5
2017-04-26T06:45:22.880Z,87.4
2017-04-26T06:46:24.677Z,87
2017-04-26T06:47:26.473Z,86.7
2017-04-26T06:48:28.272Z,86.2
2017-04-26T06:49:30.068Z,85.8
2017-04-26T06:50:31.872Z,85.3
2017-04-26T06:51:33.673Z,85.8
2017-04-26T06:52:35.470Z,85.5
2017-04-26T06:53:37.279Z,85.8
2017-04-26T06:54:39.068Z,85.4
2017-04-26T06:55:40.908Z,86
2017-04-26T06:56:42.708Z,86.4
2017-04-26T06:57:44.855Z,86.4
2017-04-26T06:58:46.998Z,86.7
2017-04-26T06:59:48.806Z,86
2017-04-26T07:00:50.612Z,86.6
2017-04-26T07:01:52.414Z,86.4
2017-04-26T07:02:54.210Z,86.2
2017-04-26T07:03:56.007Z,86
2017-04-26T07:04:57.806Z,86.2
2017-04-26T07:05:59.610Z,86.3
2017-04-26T07:07:01.411Z,86.6
2017-04-26T07:08:03.211Z,86.4
2017-04-26T07:09:05.005Z,86.4
2017-04-26T07:10:06.807Z,85.5
2017-04-26T07:11:08.606Z,84.6
2017-04-26T07:12:10.407Z,85.8
2017-04-26T07:13:12.205Z,86.3
2017-04-26T07:14:14.021Z,85.9
2017-04-26T07:15:15.826Z,85.1
2017-04-26T07:16:17.654Z,84.6
2017-04-26T07:17:19.465Z,84.6
2017-04-26T07:18:21.267Z,85.7
2017-04-26T07:19:23.411Z,85.2
2017-04-26T07:20:25.209Z,85.2
2017-04-26T07:21:27.006Z,84.4
2017-04-26T07:22:28.807Z,83.6
2017-04-26T07:23:30.611Z,83.3
2017-04-26T07:24:32.415Z,84.4
2017-04-26T07:25:34.223Z,84.1
2017-04-26T07:26:36.018Z,83.9
2017-04-26T07:27:37.815Z,83.5
2017-04-26T07:28:39.614Z,82.6
2017-04-26T07:29:41.413Z,83.2
2017-04-26T07:30:43.567Z,83.1
2017-04-26T07:31:45.363Z,84.1
2017-04-26T07:32:47.168Z,82.6
2017-04-26T07:33:49.304Z,80.9
2017-04-26T07:34:51.441Z,80
2017-04-26T07:35:53.236Z,80.7
2017-04-26T07:36:55.043Z,81.9
2017-04-26T07:37:57.179Z,80
2017-04-26T07:38:58.981Z,78.6
2017-04-26T07:40:00.786Z,78.6
2017-04-26T07:41:02.580Z,78.8
2017-04-26T07:42:04.382Z,76.3
2017-04-26T07:43:06.534Z,76.3
2017-04-26T07:44:08.337Z,76.4
2017-04-26T07:45:10.140Z,76.3
2017-04-26T07:46:11.945Z,75.4
2017-04-26T07:47:13.750Z,74.9
2017-04-26T07:48:15.555Z,75.4
2017-04-26T07:49:17.365Z,74.3
2017-04-26T07:50:19.175Z,74.6
2017-04-26T07:51:21.311Z,74.5
2017-04-26T07:52:23.119Z,74.1
2017-04-26T07:53:24.922Z,73.1
2017-04-26T07:54:26.724Z,73.5
2017-04-26T07:55:28.531Z,72.4
2017-04-26T07:56:30.329Z,72.6
2017-04-26T07:57:32.135Z,74.2
2017-04-26T07:58:33.932Z,72.3
2017-04-26T07:59:35.740Z,71.8
2017-04-26T08:00:37.542Z,71.3
2017-04-26T08:01:39.343Z,70.5
2017-04-26T08:02:41.148Z,70.2
2017-04-26T08:03:42.943Z,70.5
2017-04-26T08:04:44.749Z,70.3
2017-04-26T08:05:46.555Z,69
2017-04-26T08:06:48.358Z,68.1
2017-04-26T08:07:50.165Z,69.3
2017-04-26T08:08:51.966Z,69.9
2017-04-26T08:09:53.767Z,69.6
2017-04-26T08:10:55.567Z,67.5
2017-04-26T08:11:57.371Z,67.7
2017-04-26T08:12:59.175Z,69.8
2017-04-26T08:14:00.981Z,67.6
2017-04-26T08:15:02.795Z,64.9
2017-04-26T08:16:04.931Z,65.9
2017-04-26T08:17:06.738Z,68.5
2017-04-26T08:18:08.555Z,67.1
2017-04-26T08:19:10.366Z,66.9
2017-04-26T08:20:12.502Z,65.1
2017-04-26T08:21:14.310Z,64
2017-04-26T08:22:16.111Z,63.9
2017-04-26T08:23:17.914Z,64.4
2017-04-26T08:24:19.716Z,63.1
2017-04-26T08:25:21.514Z,63.5
2017-04-26T08:26:23.316Z,62.8
2017-04-26T08:27:25.120Z,61.2
2017-04-26T08:28:26.927Z,60.4
2017-04-26T08:29:28.729Z,61.9
2017-04-26T08:30:30.533Z,61.3
2017-04-26T08:31:32.336Z,62.8
2017-04-26T08:32:34.146Z,60.1
2017-04-26T08:33:35.943Z,60.7
2017-04-26T08:34:37.750Z,62.2
2017-04-26T08:35:39.556Z,63.2
2017-04-26T08:36:41.363Z,61.3
2017-04-26T08:37:43.164Z,61.8
2017-04-26T08:38:44.976Z,63.4
2017-04-26T08:39:47.110Z,62.1
2017-04-26T08:40:49.253Z,60.3
2017-04-26T08:41:51.065Z,58.6
2017-04-26T08:42:52.870Z,59.7
2017-04-26T08:43:54.679Z,57.9
2017-04-26T08:44:56.504Z,59.4
2017-04-26T08:45:58.329Z,56.5
2017-04-26T08:47:00.135Z,55.8
2017-04-26T08:48:01.943Z,57.2
2017-04-26T08:49:04.083Z,55.8
2017-04-26T08:50:05.890Z,56.1
2017-04-26T08:51:07.699Z,54.9
2017-04-26T08:52:09.508Z,53.4
2017-04-26T08:53:11.306Z,53.8
2017-04-26T08:54:13.115Z,54.4
2017-04-26T08:55:14.915Z,55.4
2017-04-26T08:56:16.722Z,55.4
2017-04-26T08:57:18.861Z,54.5
2017-04-26T08:58:20.667Z,54.9
2017-04-26T08:59:22.470Z,53.8
2017-04-26T09:00:24.614Z,54.4
2017-04-26T09:01:26.416Z,55.5
2017-04-26T09:02:28.224Z,53.6
2017-04-26T09:03:30.029Z,54.6
2017-04-26T09:04:31.839Z,55.3
2017-04-26T09:05:33.648Z,56.9
2017-04-26T09:06:35.453Z,55.2
2017-04-26T09:07:37.260Z,53.7
2017-04-26T09:08:39.068Z,54.6
2017-04-26T09:09:40.893Z,55
2017-04-26T09:10:42.704Z,55.5
2017-04-26T09:11:44.852Z,56.8
2017-04-26T09:12:46.659Z,53.6
2017-04-26T09:13:48.807Z,56.5
2017-04-26T09:14:50.609Z,55.3
2017-04-26T09:15:52.418Z,55.3
2017-04-26T09:16:54.219Z,55.4
2017-04-26T09:17:56.040Z,54.1
2017-04-26T09:18:58.175Z,54.5
2017-04-26T09:19:59.982Z,54.9
2017-04-26T09:21:01.817Z,52.3
2017-04-26T09:22:03.627Z,51.9
2017-04-26T09:23:05.437Z,52.1
2017-04-26T09:24:07.253Z,52.6
2017-04-26T09:25:09.064Z,53.2
2017-04-26T09:26:10.878Z,54.1
2017-04-26T09:27:12.692Z,54.2
2017-04-26T09:28:14.502Z,51.8
2017-04-26T09:29:16.316Z,52.9
2017-04-26T09:30:18.130Z,50.6
2017-04-26T09:31:19.940Z,51.1
2017-04-26T09:32:21.751Z,51
2017-04-26T09:33:24.252Z,49.5
2017-04-26T09:34:26.064Z,48.9
2017-04-26T09:35:27.879Z,47.3
2017-04-26T09:36:29.693Z,47.9
2017-04-26T09:37:31.509Z,50.3
2017-04-26T09:38:33.322Z,50
2017-04-26T09:39:35.135Z,48.8
2017-04-26T09:40:36.946Z,49.5
2017-04-26T09:41:38.760Z,48.6
2017-04-26T09:42:40.580Z,49
2017-04-26T09:43:42.394Z,49.5
2017-04-26T09:44:44.203Z,49.7
2017-04-26T09:45:46.014Z,48.7
2017-04-26T09:46:47.831Z,49.4
2017-04-26T09:47:49.640Z,49.2
2017-04-26T09:48:51.453Z,48.4
2017-04-26T09:49:53.270Z,48.1
2017-04-26T09:50:55.094Z,46.3
2017-04-26T09:51:56.909Z,47.6
2017-04-26T09:52:58.723Z,46.9
2017-04-26T09:54:00.539Z,47.6
2017-04-26T09:55:02.357Z,47.3
2017-04-26T09:56:04.178Z,47.8
2017-04-26T09:57:06.001Z,47.7
2017-04-26T09:58:07.815Z,47.8
2017-04-26T09:59:09.633Z,50.2
2017-04-26T10:00:11.453Z,49.1
2017-04-26T10:01:13.263Z,50.1
2017-04-26T10:02:15.074Z,48.8
2017-04-26T10:03:16.910Z,49.1
2017-04-26T10:04:18.731Z,50
2017-04-26T10:05:20.543Z,49.8
2017-04-26T10:06:22.696Z,49.8
2017-04-26T10:07:24.508Z,51.4
2017-04-26T10:08:26.331Z,50.8
2017-04-26T10:09:28.144Z,50.5
2017-04-26T10:10:30.647Z,50.5
2017-04-26T10:11:32.463Z,48
2017-04-26T10:12:34.621Z,48.3
2017-04-26T10:13:36.429Z,47.3
2017-04-26T10:15:08.682Z,46.8
2017-04-26T10:16:10.501Z,46.3
2017-04-26T10:17:12.312Z,46.5
2017-04-26T10:18:14.126Z,45.6
2017-04-26T10:19:15.937Z,46.6
2017-04-26T10:20:17.749Z,47.9
2017-04-26T10:21:19.563Z,44.8
2017-04-26T10:22:21.377Z,44.5
2017-04-26T10:23:23.189Z,44.4
2017-04-26T10:24:25.009Z,42
2017-04-26T10:25:26.825Z,43.1
2017-04-26T10:26:28.646Z,41.9
2017-04-26T10:27:30.793Z,41.6
2017-04-26T10:28:48.264Z,42.2
2017-04-26T10:29:50.075Z,45.4
2017-04-26T10:31:03.686Z,43.3
2017-04-26T10:32:05.504Z,41.3
2017-04-26T10:33:07.326Z,40.8
2017-04-26T10:34:09.148Z,39.6
2017-04-26T10:35:10.961Z,40.5
2017-04-26T10:36:12.903Z,42.2
2017-04-26T10:37:14.940Z,42.8
2017-04-26T10:38:16.763Z,43.5
2017-04-26T10:39:18.577Z,42.9
2017-04-26T10:40:20.392Z,41.2
2017-04-26T10:41:22.205Z,40.7
2017-04-26T10:42:24.019Z,39.7
2017-04-26T10:43:25.840Z,41.9
2017-04-26T10:44:27.995Z,41
2017-04-26T10:45:30.144Z,43.1
2017-04-26T10:46:31.968Z,42.3
2017-04-26T10:47:33.783Z,42.8
2017-04-26T10:48:35.599Z,42.5
2017-04-26T10:49:37.414Z,43.9
2017-04-26T10:50:39.235Z,43.4
2017-04-26T10:51:41.050Z,42.2
2017-04-26T10:52:42.862Z,44.8
2017-04-26T10:53:44.674Z,45.1
2017-04-26T10:54:46.499Z,45
2017-04-26T10:55:48.309Z,44.7
2017-04-26T10:56:50.129Z,44.6
2017-04-26T10:57:51.942Z,45.7
2017-04-26T10:58:54.099Z,44.7
2017-04-26T10:59:55.910Z,44.6
2017-04-26T11:00:57.727Z,44.1
2017-04-26T11:01:59.538Z,44.3
2017-04-26T11:03:01.356Z,45.4
2017-04-26T11:04:03.168Z,45.7
2017-04-26T11:05:04.984Z,46.7
2017-04-26T11:06:06.791Z,46.4
2017-04-26T11:07:08.609Z,47.2
2017-04-26T11:08:10.419Z,48.2
2017-04-26T11:09:12.235Z,48.6
2017-04-26T11:10:14.045Z,49.5
2017-04-26T11:11:15.862Z,48.9
2017-04-26T11:12:18.004Z,49.4
2017-04-26T11:13:19.816Z,49.6
2017-04-26T11:14:21.621Z,50.2
2017-04-26T11:15:23.433Z,49.6
2017-04-26T11:16:25.241Z,50
2017-04-26T11:17:27.050Z,49.7
2017-04-26T11:18:28.859Z,50.3
2017-04-26T11:19:30.667Z,51.8
2017-04-26T11:20:32.476Z,50.6
2017-04-26T11:21:34.286Z,50.7
2017-04-26T11:22:36.107Z,49.4
2017-04-26T11:23:37.919Z,48.3
2017-04-26T11:24:39.725Z,49.4
2017-04-26T11:25:41.538Z,50
2017-04-26T11:26:43.345Z,49.5
2017-04-26T11:27:45.152Z,50.3
2017-04-26T11:28:46.961Z,50.5
2017-04-26T11:29:49.117Z,48.2
2017-04-26T11:30:50.925Z,47.5
2017-04-26T11:31:53.067Z,48
2017-04-26T11:32:54.876Z,49.5
2017-04-26T11:33:56.710Z,50.3
2017-04-26T11:34:58.516Z,49.4
2017-04-26T11:36:00.668Z,49.4
2017-04-26T11:37:02.473Z,52.3
2017-04-26T11:38:04.284Z,49
2017-04-26T11:39:06.091Z,49.7
2017-04-26T11:40:07.903Z,50.7
2017-04-26T11:41:09.713Z,49.7
2017-04-26T11:42:11.535Z,50.2
2017-04-26T11:43:13.685Z,50.8
2017-04-26T11:44:15.488Z,50.5
2017-04-26T11:45:17.298Z,50.2
2017-04-26T11:46:19.109Z,51.8
2017-04-26T11:47:20.913Z,51.6
2017-04-26T11:48:22.718Z,52.4
2017-04-26T11:49:25.199Z,52.2
2017-04-26T11:50:27.009Z,53.9
2017-04-26T11:51:29.150Z,53
2017-04-26T11:52:30.957Z,53.2
2017-04-26T11:53:32.763Z,53
2017-04-26T11:54:34.572Z,51.7
2017-04-26T11:55:36.389Z,52.4
2017-04-26T11:56:38.192Z,54.1
2017-04-26T11:57:39.997Z,54.2
2017-04-26T11:58:41.805Z,52.9
2017-04-26T11:59:43.953Z,53.3
2017-04-26T12:00:46.099Z,53.6
2017-04-26T12:01:47.905Z,53
2017-04-26T12:02:50.051Z,53
2017-04-26T12:03:51.861Z,51
2017-04-26T12:04:53.686Z,49.7
2017-04-26T12:05:55.493Z,47.7
2017-04-26T12:06:57.300Z,47.1
2017-04-26T12:07:59.112Z,47.3
2017-04-26T12:09:00.917Z,46.6
2017-04-26T12:10:03.071Z,47.1
2017-04-26T12:11:04.879Z,45.9
2017-04-26T12:12:06.694Z,44.9
2017-04-26T12:13:08.499Z,43.8
2017-04-26T12:14:10.308Z,42.9
2017-04-26T12:15:12.114Z,44.1
2017-04-26T12:16:13.928Z,43.1
2017-04-26T12:17:15.750Z,41.2
2017-04-26T12:18:17.561Z,43
2017-04-26T12:19:19.376Z,43.7
2017-04-26T12:20:21.189Z,43.7
2017-04-26T12:21:23.003Z,42.7
2017-04-26T12:22:24.818Z,42.7
2017-04-26T12:23:26.971Z,42.9
2017-04-26T12:24:28.792Z,42.5
2017-04-26T12:25:30.594Z,43.7
2017-04-26T12:26:32.418Z,44.9
2017-04-26T12:27:34.228Z,45.2
2017-04-26T12:28:36.046Z,44.6
2017-04-26T12:29:37.853Z,44.3
2017-04-26T12:30:40.021Z,44.8
2017-04-26T12:31:41.828Z,42.9
2017-04-26T12:32:43.643Z,41.9
2017-04-26T12:33:45.464Z,41.4
2017-04-26T12:34:47.275Z,41.7
2017-04-26T12:35:49.432Z,42.6
2017-04-26T12:36:51.273Z,44.1
2017-04-26T12:37:53.100Z,44.6
2017-04-26T12:38:55.580Z,43.4
2017-04-26T12:39:57.389Z,44.7
2017-04-26T12:40:59.206Z,43
2017-04-26T12:42:01.020Z,43.2
2017-04-26T12:43:02.834Z,43.3
2017-04-26T12:44:04.650Z,44.6
2017-04-26T12:45:06.464Z,45.9
2017-04-26T12:46:08.275Z,45.9
2017-04-26T12:47:10.088Z,46.8
2017-04-26T12:48:11.898Z,48.7
2017-04-26T12:49:13.713Z,49
2017-04-26T12:50:15.529Z,50.5
2017-04-26T12:51:17.341Z,51.3
2017-04-26T12:52:19.170Z,52.5
2017-04-26T12:53:20.982Z,53.9
2017-04-26T12:54:22.788Z,54.8
2017-04-26T12:55:24.600Z,53.1
2017-04-26T12:56:26.410Z,52.6
2017-04-26T12:57:28.217Z,53.6
2017-04-26T12:58:30.030Z,54.1
2017-04-26T12:59:31.842Z,55
2017-04-26T13:00:33.654Z,53.8
2017-04-26T13:01:35.453Z,52.8
2017-04-26T13:02:37.267Z,53.3
2017-04-26T13:03:39.075Z,53.1
2017-04-26T13:04:40.884Z,53.9
2017-04-26T13:05:42.698Z,53.6
2017-04-26T13:06:44.500Z,52.9
2017-04-26T13:07:46.307Z,51.4
2017-04-26T13:08:48.114Z,50.2
2017-04-26T13:09:50.265Z,50.6
2017-04-26T13:10:52.073Z,51.5
2017-04-26T13:11:54.213Z,49.9
2017-04-26T13:12:56.019Z,50.7
2017-04-26T13:13:57.826Z,49.1
2017-04-26T13:14:59.636Z,48.7
2017-04-26T13:16:01.439Z,48.1
2017-04-26T13:17:03.257Z,47.1
2017-04-26T13:18:05.068Z,48.2
2017-04-26T13:19:06.880Z,47.8
2017-04-26T13:20:08.688Z,47.2
2017-04-26T13:21:10.832Z,46.2
2017-04-26T13:22:12.639Z,45.6
2017-04-26T13:23:14.451Z,45.2
2017-04-26T13:24:16.257Z,45.5
2017-04-26T13:25:18.070Z,47.3
2017-04-26T13:26:20.215Z,45.6
2017-04-26T13:27:22.362Z,44.8
2017-04-26T13:28:24.171Z,45.2
2017-04-26T13:29:26.314Z,45.5
2017-04-26T13:30:28.124Z,45.4
2017-04-26T13:31:29.940Z,45.1
2017-04-26T13:32:31.751Z,45.3
2017-04-26T13:33:33.563Z,42.4
2017-04-26T13:34:35.367Z,42.2
2017-04-26T13:35:37.177Z,43.8
2017-04-26T13:36:38.989Z,43.1
2017-04-26T13:37:40.803Z,42.7
2017-04-26T13:38:42.611Z,41.7
2017-04-26T13:39:44.428Z,41.6
2017-04-26T13:40:46.580Z,41.6
2017-04-26T13:41:48.423Z,40.4
2017-04-26T13:42:50.238Z,40.6
2017-04-26T13:43:52.059Z,41.4
2017-04-26T13:44:53.872Z,40
2017-04-26T13:45:56.027Z,44.4
2017-04-26T13:46:57.836Z,47.9
2017-04-26T13:47:59.658Z,48.9
2017-04-26T13:49:01.474Z,48.9